createdAt,value
2019-03-04T00:01:20.477Z,11.30
2019-03-04T00:03:54.979Z,11.60
2019-03-04T00:06:28.583Z,11.60
2019-03-04T00:09:02.215Z,11.70
2019-03-04T00:11:35.794Z,11.70
2019-03-04T00:14:09.639Z,11.80
2019-03-04T00:16:43.445Z,11.90
2019-03-04T00:19:17.923Z,12.10
2019-03-04T00:21:51.547Z,12.10
2019-03-04T00:24:25.367Z,12.10
2019-03-04T00:26:59.860Z,12.00
2019-03-04T00:29:33.363Z,12.00
2019-03-04T00:32:07.094Z,12.00
2019-03-04T00:34:40.761Z,12.00
2019-03-04T00:37:15.301Z,12.00
2019-03-04T00:39:48.998Z,12.00
2019-03-04T00:42:22.813Z,12.00
2019-03-04T00:44:56.335Z,12.00
2019-03-04T00:47:29.975Z,12.00
2019-03-04T00:50:03.599Z,12.10
2019-03-04T00:52:38.118Z,12.20
2019-03-04T00:55:11.876Z,12.10
2019-03-04T00:57:45.479Z,12.20
2019-03-04T01:00:20.085Z,12.20
2019-03-04T01:02:53.853Z,12.20
2019-03-04T01:05:27.465Z,12.40
2019-03-04T01:08:01.074Z,12.50
2019-03-04T01:10:34.814Z,12.60
2019-03-04T01:13:08.355Z,12.50
2019-03-04T01:15:41.888Z,12.50
2019-03-04T01:18:15.450Z,12.40
2019-03-04T01:20:49.006Z,12.30
2019-03-04T01:23:22.646Z,12.30
2019-03-04T01:25:56.189Z,12.30
2019-03-04T01:28:29.958Z,12.30
2019-03-04T01:31:03.596Z,12.40
2019-03-04T01:33:37.187Z,12.60
2019-03-04T01:36:10.717Z,12.70
2019-03-04T01:38:44.397Z,12.80
2019-03-04T01:41:17.984Z,12.90
2019-03-04T01:43:51.598Z,12.90
2019-03-04T01:46:25.261Z,12.90
2019-03-04T01:48:58.924Z,13.00
2019-03-04T01:51:32.820Z,13.00
2019-03-04T01:54:07.362Z,13.00
2019-03-04T01:56:41.845Z,13.00
2019-03-04T01:59:15.523Z,13.00
2019-03-04T02:01:50.060Z,12.90
2019-03-04T02:04:24.378Z,13.00
2019-03-04T02:06:58.794Z,12.90
2019-03-04T02:09:32.366Z,12.90
2019-03-04T02:12:07.135Z,12.60
2019-03-04T02:14:40.836Z,12.60
2019-03-04T02:17:14.467Z,12.50
2019-03-04T02:19:48.995Z,12.30
2019-03-04T02:22:22.728Z,12.20
2019-03-04T02:24:56.298Z,12.10
2019-03-04T02:27:29.849Z,12.00
2019-03-04T02:30:03.563Z,11.90
2019-03-04T02:32:37.330Z,11.80
2019-03-04T02:35:10.917Z,11.80
2019-03-04T02:37:44.518Z,11.80
2019-03-04T02:40:18.039Z,11.70
2019-03-04T02:42:52.553Z,11.70
2019-03-04T02:45:26.334Z,11.60
2019-03-04T02:47:59.828Z,11.60
2019-03-04T02:50:33.415Z,11.60
2019-03-04T02:53:06.950Z,11.50
2019-03-04T02:55:40.603Z,11.50
2019-03-04T02:58:14.199Z,11.40
2019-03-04T03:00:47.801Z,11.30
2019-03-04T03:03:21.295Z,11.20
2019-03-04T03:05:54.845Z,11.00
2019-03-04T03:08:28.605Z,10.90
2019-03-04T03:11:02.293Z,10.80
2019-03-04T03:13:36.760Z,10.60
2019-03-04T03:16:11.146Z,10.50
2019-03-04T03:18:44.796Z,10.50
2019-03-04T03:21:18.451Z,10.40
2019-03-04T03:23:52.095Z,10.40
2019-03-04T03:26:25.778Z,10.40
2019-03-04T03:29:00.314Z,10.60
2019-03-04T03:31:34.819Z,10.50
2019-03-04T03:34:09.420Z,10.40
2019-03-04T03:36:42.950Z,10.40
2019-03-04T03:39:16.551Z,10.30
2019-03-04T03:41:50.073Z,10.20
2019-03-04T03:44:23.766Z,10.20
2019-03-04T03:46:57.307Z,10.30
2019-03-04T03:49:30.840Z,10.30
2019-03-04T03:52:04.382Z,10.40
2019-03-04T03:54:38.049Z,10.40
2019-03-04T03:57:11.763Z,10.40
2019-03-04T03:59:45.352Z,10.40
2019-03-04T04:02:19.091Z,10.30
2019-03-04T04:04:52.663Z,10.30
2019-03-04T04:07:26.250Z,10.30
2019-03-04T04:09:59.787Z,10.20
2019-03-04T04:12:33.613Z,10.10
2019-03-04T04:15:08.140Z,10.10
2019-03-04T04:17:41.884Z,10.10
2019-03-04T04:20:15.477Z,10.00
2019-03-04T04:22:49.828Z,10.10
2019-03-04T04:25:24.261Z,10.10
2019-03-04T04:27:57.992Z,10.10
2019-03-04T04:30:32.061Z,10.10
2019-03-04T04:33:05.748Z,10.10
2019-03-04T04:35:40.112Z,10.20
2019-03-04T04:38:13.712Z,10.20
2019-03-04T04:40:47.263Z,10.30
2019-03-04T04:43:20.926Z,10.30
2019-03-04T04:45:54.670Z,10.40
2019-03-04T04:48:29.105Z,10.60
2019-03-04T04:51:02.897Z,10.60
2019-03-04T04:53:37.143Z,10.70
2019-03-04T04:56:10.702Z,10.70
2019-03-04T04:58:45.087Z,10.80
2019-03-04T05:01:18.818Z,10.80
2019-03-04T05:03:52.404Z,10.90
2019-03-04T05:06:26.233Z,11.00
2019-03-04T05:08:59.762Z,11.00
2019-03-04T05:11:33.699Z,11.10
2019-03-04T05:14:07.421Z,11.00
2019-03-04T05:16:41.108Z,10.90
2019-03-04T05:19:14.855Z,10.90
2019-03-04T05:21:49.313Z,10.90
2019-03-04T05:24:22.877Z,10.90
2019-03-04T05:26:57.228Z,10.90
2019-03-04T05:29:30.830Z,10.90
2019-03-04T05:32:04.552Z,10.80
2019-03-04T05:34:38.223Z,10.80
2019-03-04T05:37:12.012Z,10.70
2019-03-04T05:39:45.550Z,10.80
2019-03-04T05:42:19.144Z,10.80
2019-03-04T05:44:53.464Z,10.70
2019-03-04T05:47:27.154Z,10.70
2019-03-04T05:50:00.969Z,10.70
2019-03-04T05:52:35.317Z,10.70
2019-03-04T05:55:09.055Z,10.70
2019-03-04T05:57:42.616Z,10.80
2019-03-04T06:00:17.115Z,10.80
2019-03-04T06:02:51.678Z,10.80
2019-03-04T06:05:25.479Z,10.80
2019-03-04T06:07:59.069Z,10.90
2019-03-04T06:10:33.580Z,10.80
2019-03-04T06:13:07.291Z,10.80
2019-03-04T06:15:40.886Z,10.80
2019-03-04T06:18:14.627Z,10.70
2019-03-04T06:20:48.201Z,10.70
2019-03-04T06:23:21.815Z,10.80
2019-03-04T06:25:55.571Z,11.00
2019-03-04T06:28:29.412Z,11.10
2019-03-04T06:31:03.018Z,11.30
2019-03-04T06:33:36.701Z,11.30
2019-03-04T06:36:11.054Z,11.20
2019-03-04T06:38:45.533Z,11.20
2019-03-04T06:41:19.126Z,11.20
2019-03-04T06:43:53.536Z,11.20
2019-03-04T06:46:27.195Z,11.20
2019-03-04T06:49:00.909Z,11.40
2019-03-04T06:51:34.695Z,11.50
2019-03-04T06:54:10.254Z,11.70
2019-03-04T06:59:46.996Z,11.90
2019-03-04T07:02:20.494Z,12.10
2019-03-04T07:05:07.944Z,12.20
2019-03-04T07:07:41.580Z,12.30
2019-03-04T07:10:15.116Z,12.40
2019-03-04T07:12:48.787Z,12.40
2019-03-04T07:15:22.360Z,12.40
2019-03-04T07:17:55.983Z,12.40
2019-03-04T07:20:29.722Z,12.40
2019-03-04T07:23:03.290Z,12.50
2019-03-04T07:25:37.042Z,12.40
2019-03-04T07:28:10.623Z,12.40
2019-03-04T07:30:44.252Z,12.40
2019-03-04T07:33:17.873Z,12.40
2019-03-04T07:35:51.429Z,12.40
2019-03-04T07:38:41.923Z,12.50
2019-03-04T07:41:16.395Z,12.80
2019-03-04T07:43:50.097Z,12.80
2019-03-04T07:46:23.698Z,12.90
2019-03-04T07:48:57.270Z,13.00
2019-03-04T07:51:30.842Z,13.10
2019-03-04T07:54:05.170Z,13.20
2019-03-04T07:56:38.906Z,13.10
2019-03-04T07:59:12.749Z,13.30
2019-03-04T08:01:47.346Z,13.40
2019-03-04T08:04:21.042Z,13.40
2019-03-04T08:06:54.607Z,13.50
2019-03-04T08:09:29.793Z,13.70
2019-03-04T08:12:27.754Z,13.70
2019-03-04T08:15:01.570Z,13.70
2019-03-04T08:17:35.340Z,13.70
2019-03-04T08:20:09.142Z,13.70
2019-03-04T08:22:43.626Z,13.40
2019-03-04T08:25:18.083Z,13.00
2019-03-04T08:27:51.907Z,13.00
2019-03-04T08:30:25.648Z,12.50
2019-03-04T08:32:59.259Z,12.50
2019-03-04T08:35:33.045Z,12.50
2019-03-04T08:38:06.652Z,12.70
2019-03-04T08:40:40.484Z,12.60
2019-03-04T08:43:14.855Z,11.80
2019-03-04T08:45:48.737Z,11.80
2019-03-04T08:48:23.119Z,10.60
2019-03-04T08:50:56.688Z,10.50
2019-03-04T08:53:31.018Z,10.10
2019-03-04T08:56:04.657Z,10.40
2019-03-04T08:58:38.301Z,10.40
2019-03-04T09:01:12.003Z,10.40
2019-03-04T09:03:45.640Z,10.60
2019-03-04T09:06:19.410Z,10.80
2019-03-04T09:08:53.040Z,10.90
2019-03-04T09:11:26.863Z,11.10
2019-03-04T09:14:00.423Z,11.30
2019-03-04T09:16:34.023Z,11.50
2019-03-04T09:19:07.806Z,12.20
2019-03-04T09:21:41.440Z,12.80
2019-03-04T09:24:15.123Z,13.20
2019-03-04T09:26:48.970Z,12.40
2019-03-04T09:29:23.372Z,11.50
2019-03-04T09:31:57.028Z,11.50
2019-03-04T09:34:30.708Z,11.30
2019-03-04T09:37:04.517Z,11.40
2019-03-04T09:39:38.286Z,11.50
2019-03-04T09:42:11.875Z,11.50
2019-03-04T09:44:45.621Z,11.60
2019-03-04T09:47:19.457Z,11.80
2019-03-04T09:49:53.238Z,12.10
2019-03-04T09:52:26.919Z,12.00
2019-03-04T09:55:00.435Z,12.10
2019-03-04T09:57:34.177Z,12.10
2019-03-04T10:00:31.604Z,12.10
2019-03-04T10:03:10.567Z,12.20
2019-03-04T10:06:06.719Z,12.20
2019-03-04T10:09:10.030Z,12.10
2019-03-04T10:11:55.158Z,12.00
2019-03-04T10:14:43.446Z,12.10
2019-03-04T10:17:20.839Z,12.20
2019-03-04T10:33:48.242Z,11.60
2019-03-04T10:36:36.614Z,11.60
2019-03-04T10:52:35.384Z,11.60
2019-03-04T10:55:10.071Z,11.40
2019-03-04T10:57:44.454Z,11.30
2019-03-04T11:00:18.041Z,11.30
2019-03-04T11:02:51.795Z,11.30
2019-03-04T11:05:26.461Z,11.20
2019-03-04T11:08:00.214Z,11.20
2019-03-04T11:10:34.028Z,11.20
2019-03-04T11:13:07.736Z,11.20
2019-03-04T11:15:42.121Z,11.10
2019-03-04T11:18:15.716Z,11.10
2019-03-04T11:20:49.461Z,11.10
2019-03-04T11:23:23.295Z,11.10
2019-03-04T11:25:56.940Z,11.20
2019-03-04T11:28:31.395Z,11.10
2019-03-04T11:31:05.218Z,11.10
2019-03-04T11:33:39.748Z,11.00
2019-03-04T11:36:13.524Z,11.00
2019-03-04T11:38:49.361Z,11.00
2019-03-04T11:41:23.027Z,11.00
2019-03-04T11:44:05.965Z,11.10
2019-03-04T11:46:39.608Z,11.10
2019-03-04T11:49:13.335Z,11.00
2019-03-04T11:51:46.859Z,11.10
2019-03-04T11:54:21.190Z,11.00
2019-03-04T11:56:54.931Z,11.00
2019-03-04T12:12:29.190Z,11.00
2019-03-04T12:15:02.786Z,11.00
2019-03-04T12:17:36.472Z,10.90
2019-03-04T12:20:10.132Z,11.00
2019-03-04T12:22:43.696Z,11.00
2019-03-04T12:25:18.315Z,10.90
2019-03-04T12:27:52.002Z,10.90
2019-03-04T12:30:25.734Z,11.00
2019-03-04T12:32:59.458Z,11.10
2019-03-04T12:35:33.067Z,11.10
2019-03-04T12:38:06.671Z,11.00
2019-03-04T12:40:40.516Z,11.00
2019-03-04T12:43:14.233Z,11.00
2019-03-04T12:45:47.821Z,11.00
2019-03-04T12:48:21.528Z,11.00
2019-03-04T12:50:55.351Z,11.10
2019-03-04T12:53:37.076Z,11.20
2019-03-04T12:56:02.712Z,11.40
2019-03-04T12:58:36.356Z,11.50
2019-03-04T13:01:10.932Z,11.70
2019-03-04T13:03:44.792Z,11.70
2019-03-04T13:06:18.709Z,11.70
2019-03-04T13:08:53.839Z,12.20
2019-03-04T13:11:27.730Z,12.20
2019-03-04T13:14:01.352Z,12.30
2019-03-04T13:16:35.107Z,12.20
2019-03-04T13:19:08.656Z,12.30
2019-03-04T13:21:42.302Z,12.20
2019-03-04T13:24:16.668Z,12.40
2019-03-04T13:26:52.216Z,12.40
2019-03-04T13:29:25.743Z,12.30
2019-03-04T13:31:59.359Z,12.40
2019-03-04T13:34:34.150Z,12.40
2019-03-04T13:37:07.888Z,12.40
2019-03-04T13:39:41.668Z,12.40
2019-03-04T13:42:15.203Z,12.40
2019-03-04T13:44:48.822Z,12.40
2019-03-04T13:47:22.555Z,12.50
2019-03-04T13:49:56.202Z,12.60
2019-03-04T13:52:29.878Z,12.60
2019-03-04T13:55:03.615Z,12.70
2019-03-04T13:57:37.430Z,12.90
2019-03-04T14:00:13.197Z,13.00
2019-03-04T14:02:46.801Z,13.10
2019-03-04T14:05:20.549Z,13.20
2019-03-04T14:07:54.928Z,13.30
2019-03-04T14:10:38.622Z,13.30
2019-03-04T14:13:12.285Z,13.40
2019-03-04T14:15:47.659Z,13.40
2019-03-04T14:18:22.072Z,13.50
2019-03-04T14:20:55.890Z,13.40
2019-03-04T14:23:29.603Z,13.50
2019-03-04T14:26:03.381Z,13.50
2019-03-04T14:28:37.227Z,13.50
2019-03-04T14:31:11.666Z,13.60
2019-03-04T14:33:45.478Z,13.60
2019-03-04T14:36:19.154Z,13.50
2019-03-04T14:38:52.663Z,13.50
2019-03-04T14:41:26.326Z,13.50
2019-03-04T14:44:00.909Z,13.30
2019-03-04T14:46:34.604Z,13.20
2019-03-04T14:49:08.479Z,13.20
2019-03-04T14:51:42.475Z,13.30
2019-03-04T14:54:16.185Z,13.20
2019-03-04T14:56:50.654Z,13.30
2019-03-04T14:59:25.270Z,13.10
2019-03-04T15:01:58.895Z,13.10
2019-03-04T15:04:32.715Z,13.00
2019-03-04T15:07:06.753Z,13.00
2019-03-04T15:09:49.089Z,12.70
2019-03-04T15:12:14.272Z,12.60
2019-03-04T15:14:47.761Z,12.60
2019-03-04T15:17:21.387Z,12.40
2019-03-04T15:19:55.055Z,12.30
2019-03-04T15:22:34.979Z,12.30
2019-03-04T15:25:02.321Z,12.20
2019-03-04T15:27:35.995Z,12.20
2019-03-04T15:30:09.596Z,12.30
2019-03-04T15:32:43.991Z,12.10
2019-03-04T15:35:17.727Z,12.10
2019-03-04T15:37:51.523Z,12.10
2019-03-04T15:40:26.745Z,12.00
2019-03-04T15:42:58.801Z,11.90
2019-03-04T15:45:33.647Z,11.80
2019-03-04T15:48:06.154Z,11.60
2019-03-04T15:50:39.796Z,10.60
2019-03-04T15:53:13.528Z,9.90
2019-03-04T15:55:47.388Z,8.90
2019-03-04T15:58:21.980Z,8.40
2019-03-04T16:00:57.276Z,8.20
2019-03-04T16:03:30.813Z,8.20
2019-03-04T16:06:04.403Z,7.60
2019-03-04T16:08:38.030Z,7.20
2019-03-04T16:11:12.552Z,7.00
2019-03-04T16:13:54.040Z,6.80
2019-03-04T16:16:21.654Z,6.70
2019-03-04T16:18:55.154Z,6.70
2019-03-04T16:21:28.767Z,6.60
2019-03-04T16:24:02.505Z,6.60
2019-03-04T16:26:36.106Z,6.50
2019-03-04T16:29:09.900Z,6.60
2019-03-04T16:31:44.226Z,6.50
2019-03-04T16:34:18.045Z,6.50
2019-03-04T16:36:51.834Z,6.60
2019-03-04T16:39:25.443Z,6.70
2019-03-04T16:41:59.237Z,6.70
2019-03-04T16:44:32.756Z,6.80
2019-03-04T16:47:06.303Z,6.90
2019-03-04T16:49:39.928Z,6.80
2019-03-04T16:52:14.215Z,6.80
2019-03-04T16:54:47.968Z,6.70
2019-03-04T16:57:21.541Z,6.80
2019-03-04T16:59:56.098Z,6.90
2019-03-04T17:02:29.796Z,6.90
2019-03-04T17:05:04.317Z,6.90
2019-03-04T17:07:38.070Z,6.90
2019-03-04T17:10:12.519Z,7.00
2019-03-04T17:12:46.112Z,6.90
2019-03-04T17:15:19.762Z,6.90
2019-03-04T17:17:53.428Z,7.00
2019-03-04T17:20:27.055Z,7.00
2019-03-04T17:23:00.797Z,6.80
2019-03-04T17:25:34.527Z,6.80
2019-03-04T17:28:08.171Z,6.90
2019-03-04T17:30:41.748Z,6.80
2019-03-04T17:33:15.587Z,6.80
2019-03-04T17:35:49.293Z,6.80
2019-03-04T17:38:23.050Z,6.80
2019-03-04T17:40:57.379Z,6.70
2019-03-04T17:43:30.977Z,6.70
2019-03-04T17:46:04.761Z,6.60
2019-03-04T17:48:38.483Z,6.60
2019-03-04T17:51:12.120Z,6.60
2019-03-04T17:53:45.666Z,6.60
2019-03-04T17:56:19.208Z,6.60
2019-03-04T17:58:52.916Z,6.70
2019-03-04T18:01:27.338Z,6.70
2019-03-04T18:04:00.996Z,6.70
2019-03-04T18:06:35.458Z,6.50
2019-03-04T18:09:09.064Z,6.50
2019-03-04T18:11:43.591Z,6.60
2019-03-04T18:14:18.123Z,6.60
2019-03-04T18:16:52.516Z,6.60
2019-03-04T18:19:26.285Z,6.50
2019-03-04T18:22:00.116Z,6.50
2019-03-04T18:24:33.816Z,6.40
2019-03-04T18:27:07.431Z,6.40
2019-03-04T18:29:42.113Z,6.40
2019-03-04T18:32:39.432Z,6.40
2019-03-04T18:48:51.311Z,6.50
2019-03-04T18:51:25.144Z,6.50
2019-03-04T18:53:58.856Z,6.50
2019-03-04T18:56:32.758Z,6.60
2019-03-04T18:59:06.664Z,6.60
2019-03-04T19:01:41.152Z,6.50
2019-03-04T19:04:14.923Z,6.50
2019-03-04T19:06:48.770Z,6.50
2019-03-04T19:09:22.535Z,6.50
2019-03-04T19:11:57.070Z,6.40
2019-03-04T19:14:30.658Z,6.40
2019-03-04T19:17:04.318Z,6.40
2019-03-04T19:19:37.932Z,6.50
2019-03-04T19:22:11.593Z,6.60
2019-03-04T19:24:45.132Z,6.70
2019-03-04T19:27:18.724Z,6.80
2019-03-04T19:29:52.459Z,6.80
2019-03-04T19:32:26.219Z,6.70
2019-03-04T19:34:59.876Z,6.70
2019-03-04T19:37:33.547Z,6.70
2019-03-04T19:40:10.304Z,6.70
2019-03-04T19:42:43.948Z,6.70
2019-03-04T19:45:18.178Z,6.80
2019-03-04T19:47:51.913Z,6.80
2019-03-04T19:50:25.690Z,6.80
2019-03-04T19:52:59.394Z,6.80
2019-03-04T19:55:33.155Z,6.80
2019-03-04T19:58:06.949Z,6.60
2019-03-04T20:00:41.351Z,6.40
2019-03-04T20:03:15.906Z,6.30
2019-03-04T20:05:49.499Z,6.40
2019-03-04T20:08:23.303Z,6.40
2019-03-04T20:10:57.115Z,6.30
2019-03-04T20:13:30.828Z,6.30
2019-03-04T20:16:05.322Z,6.20
2019-03-04T20:18:39.114Z,6.20
2019-03-04T20:21:12.728Z,6.00
2019-03-04T20:23:46.450Z,5.90
2019-03-04T20:26:20.024Z,5.80
2019-03-04T20:28:53.617Z,5.70
2019-03-04T20:31:27.150Z,5.70
2019-03-04T20:34:00.733Z,5.60
2019-03-04T20:36:35.044Z,5.50
2019-03-04T20:39:10.244Z,5.50
2019-03-04T20:41:43.783Z,5.50
2019-03-04T20:44:17.586Z,5.50
2019-03-04T20:46:51.249Z,5.40
2019-03-04T20:49:24.855Z,5.50
2019-03-04T20:51:58.564Z,5.40
2019-03-04T20:54:32.191Z,5.30
2019-03-04T20:57:05.972Z,5.40
2019-03-04T20:59:39.512Z,5.50
2019-03-04T21:02:13.255Z,5.30
2019-03-04T21:04:46.896Z,5.20
2019-03-04T21:07:20.504Z,5.20
2019-03-04T21:09:54.300Z,5.30
2019-03-04T21:12:28.763Z,5.30
2019-03-04T21:15:02.544Z,5.30
2019-03-04T21:17:36.215Z,5.30
2019-03-04T21:20:11.695Z,5.30
2019-03-04T21:22:45.456Z,5.40
2019-03-04T21:25:29.959Z,5.40
2019-03-04T21:28:13.104Z,5.50
2019-03-04T21:31:20.068Z,5.50
2019-03-04T21:33:59.605Z,5.60
2019-03-04T21:36:39.947Z,5.70
2019-03-04T21:39:18.019Z,5.60
2019-03-04T21:41:56.608Z,5.60
2019-03-04T21:58:05.734Z,5.70
2019-03-04T22:00:39.374Z,5.80
2019-03-04T22:03:15.998Z,5.80
2019-03-04T22:05:50.659Z,5.80
2019-03-04T22:08:23.552Z,5.90
2019-03-04T22:10:57.116Z,5.90
2019-03-04T22:13:30.709Z,6.00
2019-03-04T22:16:04.417Z,6.00
2019-03-04T22:18:38.100Z,5.90
2019-03-04T22:21:16.653Z,5.90
2019-03-04T22:23:45.567Z,5.90
2019-03-04T22:26:19.103Z,5.90
2019-03-04T22:28:52.785Z,6.00
2019-03-04T22:31:26.427Z,6.00
2019-03-04T22:33:59.992Z,5.90
2019-03-04T22:36:33.521Z,5.90
2019-03-04T22:39:07.139Z,5.90
2019-03-04T22:41:40.874Z,5.90
2019-03-04T22:44:14.469Z,5.90
2019-03-04T22:46:48.111Z,6.00
2019-03-04T22:49:21.732Z,6.00
2019-03-04T22:51:56.243Z,6.00
2019-03-04T22:54:30.655Z,6.00
2019-03-04T22:57:04.384Z,6.00
2019-03-04T22:59:37.964Z,6.00
2019-03-04T23:02:11.602Z,5.90
2019-03-04T23:04:45.278Z,5.90
2019-03-04T23:07:19.113Z,5.90
2019-03-04T23:09:54.545Z,5.80
2019-03-04T23:12:29.455Z,5.80
2019-03-04T23:15:03.220Z,5.80
2019-03-04T23:17:36.940Z,5.70
2019-03-04T23:20:10.535Z,5.70
2019-03-04T23:22:44.142Z,5.70
2019-03-04T23:25:17.944Z,5.70
2019-03-04T23:27:51.574Z,5.70
2019-03-04T23:30:25.967Z,5.60
2019-03-04T23:33:00.508Z,5.60
2019-03-04T23:35:34.223Z,5.60
2019-03-04T23:38:07.916Z,5.60
2019-03-04T23:40:41.515Z,5.60
2019-03-04T23:43:15.127Z,5.60
2019-03-04T23:45:49.932Z,5.70
2019-03-04T23:48:23.734Z,5.70
2019-03-04T23:50:57.688Z,5.70
2019-03-04T23:53:31.521Z,5.70
2019-03-04T23:56:05.427Z,5.60
2019-03-04T23:58:39.327Z,5.60
